createdAt,value
2023-06-09T00:04:00.321Z,99.90
2023-06-09T00:09:05.522Z,99.90
2023-06-09T00:14:07.849Z,99.90
2023-06-09T00:19:13.176Z,99.90
2023-06-09T00:24:15.422Z,99.90
2023-06-09T00:29:19.133Z,99.90
2023-06-09T00:34:22.086Z,99.90
2023-06-09T00:39:24.761Z,99.90
2023-06-09T00:44:26.838Z,99.90
2023-06-09T00:49:28.940Z,99.90
2023-06-09T00:54:31.405Z,99.90
2023-06-09T00:59:35.514Z,99.90
2023-06-09T01:04:37.643Z,99.90
2023-06-09T01:09:41.894Z,99.90
2023-06-09T01:14:59.461Z,99.90
2023-06-09T01:20:05.860Z,99.90
2023-06-09T01:25:28.158Z,99.90
2023-06-09T01:30:31.805Z,99.90
2023-06-09T01:35:33.995Z,99.90
2023-06-09T01:40:37.328Z,99.90
2023-06-09T01:45:39.645Z,99.90
2023-06-09T01:50:58.149Z,99.90
2023-06-09T01:56:15.495Z,99.90
2023-06-09T02:01:18.953Z,99.90
2023-06-09T02:06:22.575Z,99.90
2023-06-09T02:11:26.869Z,99.90
2023-06-09T02:16:29.105Z,99.90
2023-06-09T02:21:31.243Z,99.90
2023-06-09T02:26:33.591Z,99.90
2023-06-09T02:31:35.891Z,99.90
2023-06-09T02:36:43.882Z,99.90
2023-06-09T02:41:46.716Z,99.90
2023-06-09T02:46:50.128Z,99.90
2023-06-09T02:51:52.400Z,99.90
2023-06-09T02:56:55.158Z,99.90
2023-06-09T03:01:57.579Z,99.90
2023-06-09T03:06:59.890Z,99.90
2023-06-09T03:12:02.300Z,99.90
2023-06-09T03:17:06.239Z,99.90
2023-06-09T03:22:09.777Z,99.90
2023-06-09T03:27:14.111Z,99.90
2023-06-09T03:32:16.770Z,99.90
2023-06-09T03:37:19.372Z,99.90
2023-06-09T03:42:21.880Z,99.90
2023-06-09T03:47:24.629Z,99.90
2023-06-09T03:52:28.237Z,99.90
2023-06-09T03:57:32.857Z,99.90
2023-06-09T04:02:35.526Z,99.90
2023-06-09T04:07:37.721Z,99.90
2023-06-09T04:12:42.682Z,99.90
2023-06-09T04:17:45.795Z,99.90
2023-06-09T04:22:49.565Z,99.90
2023-06-09T04:27:55.963Z,99.90
2023-06-09T04:33:06.096Z,99.90
2023-06-09T04:38:09.882Z,99.90
2023-06-09T04:43:14.113Z,99.90
2023-06-09T04:48:16.779Z,99.90
2023-06-09T04:53:20.740Z,99.90
2023-06-09T04:58:30.011Z,99.90
2023-06-09T05:03:32.446Z,99.90
2023-06-09T05:08:35.016Z,99.90
2023-06-09T05:13:38.702Z,99.90
2023-06-09T05:18:41.911Z,99.90
2023-06-09T05:23:44.655Z,99.90
2023-06-09T05:28:48.136Z,99.90
2023-06-09T05:33:50.756Z,99.90
2023-06-09T05:38:53.370Z,99.90
2023-06-09T05:43:59.034Z,99.90
2023-06-09T05:49:01.346Z,99.90
2023-06-09T05:54:04.014Z,99.90
2023-06-09T05:59:06.301Z,99.90
2023-06-09T06:04:11.030Z,99.90
2023-06-09T06:09:13.312Z,99.90
2023-06-09T06:14:15.415Z,99.90
2023-06-09T06:19:18.142Z,99.90
2023-06-09T06:24:20.372Z,99.90
2023-06-09T06:29:22.514Z,99.90
2023-06-09T06:34:26.429Z,99.90
2023-06-09T06:39:29.050Z,99.90
2023-06-09T06:44:31.241Z,99.90
2023-06-09T06:49:33.322Z,99.90
2023-06-09T06:54:35.787Z,99.90
2023-06-09T06:59:37.869Z,99.90
2023-06-09T07:04:40.030Z,99.90
2023-06-09T07:09:42.273Z,99.90
2023-06-09T07:14:44.554Z,99.90
2023-06-09T07:19:47.066Z,99.90
2023-06-09T07:24:49.166Z,99.90
2023-06-09T07:29:51.294Z,99.90
2023-06-09T07:34:55.104Z,99.90
2023-06-09T07:40:13.214Z,99.90
2023-06-09T07:45:19.898Z,99.90
2023-06-09T07:50:22.587Z,99.90
2023-06-09T07:55:24.910Z,99.90
2023-06-09T08:00:28.785Z,99.90
2023-06-09T08:05:33.819Z,99.90
2023-06-09T08:10:38.078Z,99.90
2023-06-09T08:15:40.605Z,99.90
2023-06-09T08:20:43.293Z,99.90
2023-06-09T08:25:45.525Z,99.90
2023-06-09T08:30:47.596Z,99.90
2023-06-09T08:35:49.685Z,99.90
2023-06-09T08:40:53.683Z,99.90
2023-06-09T08:45:57.520Z,99.90
2023-06-09T08:50:59.774Z,99.90
2023-06-09T08:56:03.213Z,99.90
2023-06-09T09:01:05.886Z,99.90
2023-06-09T09:06:08.117Z,99.90
2023-06-09T09:11:10.172Z,99.90
2023-06-09T09:16:17.066Z,99.90
2023-06-09T09:21:24.527Z,99.90
2023-06-09T09:26:32.415Z,99.90
2023-06-09T09:31:37.451Z,99.90
2023-06-09T09:36:46.763Z,99.90
2023-06-09T09:42:05.887Z,97.10
2023-06-09T09:47:10.165Z,83.40
2023-06-09T09:52:13.800Z,80.30
2023-06-09T09:57:16.002Z,58.60
2023-06-09T10:02:25.280Z,51.60
2023-06-09T10:07:31.326Z,45.10
2023-06-09T10:12:35.094Z,46.10
2023-06-09T10:17:38.245Z,42.70
2023-06-09T10:22:42.591Z,43.70
2023-06-09T10:27:46.441Z,41.00
2023-06-09T10:33:06.369Z,39.90
2023-06-09T10:38:45.887Z,40.00
2023-06-09T10:44:13.076Z,38.80
2023-06-09T10:49:27.486Z,36.90
2023-06-09T10:54:32.152Z,37.30
2023-06-09T10:59:34.196Z,35.70
2023-06-09T11:04:50.376Z,35.70
2023-06-09T11:09:58.497Z,33.80
2023-06-09T11:15:09.334Z,32.30
2023-06-09T11:20:12.799Z,34.10
2023-06-09T11:25:18.791Z,34.40
2023-06-09T11:30:26.529Z,33.90
2023-06-09T11:35:41.377Z,34.30
2023-06-09T11:40:53.562Z,33.80
2023-06-09T11:46:03.040Z,33.60
2023-06-09T11:51:05.469Z,33.40
2023-06-09T11:56:08.139Z,34.20
2023-06-09T12:01:11.200Z,32.40
2023-06-09T12:06:17.900Z,32.20
2023-06-09T12:11:20.690Z,32.20
2023-06-09T12:16:25.284Z,31.70
2023-06-09T12:21:27.931Z,32.60
2023-06-09T12:26:41.227Z,32.00
2023-06-09T12:31:50.788Z,33.60
2023-06-09T12:36:53.902Z,33.70
2023-06-09T12:41:56.039Z,33.10
2023-06-09T12:46:58.138Z,32.90
2023-06-09T12:52:01.312Z,32.50
2023-06-09T12:57:03.541Z,33.80
2023-06-09T13:02:07.085Z,32.10
2023-06-09T13:07:09.267Z,34.00
2023-06-09T13:12:11.890Z,34.80
2023-06-09T13:17:14.020Z,33.80
2023-06-09T13:22:16.261Z,31.10
2023-06-09T13:27:18.548Z,32.10
2023-06-09T13:32:20.676Z,31.80
2023-06-09T13:37:22.819Z,31.50
2023-06-09T13:42:25.007Z,30.20
2023-06-09T13:47:27.155Z,31.30
2023-06-09T13:52:29.295Z,31.20
2023-06-09T13:57:31.412Z,31.50
2023-06-09T14:02:33.643Z,32.40
2023-06-09T14:07:38.341Z,32.80
2023-06-09T14:12:41.988Z,32.00
2023-06-09T14:17:50.809Z,33.00
2023-06-09T14:22:53.863Z,33.60
2023-06-09T14:27:56.862Z,32.80
2023-06-09T14:32:59.233Z,34.10
2023-06-09T14:38:03.029Z,33.50
2023-06-09T14:43:07.322Z,35.10
2023-06-09T14:48:10.674Z,34.40
2023-06-09T14:53:13.637Z,34.40
2023-06-09T14:58:19.016Z,33.90
2023-06-09T15:03:21.319Z,33.20
2023-06-09T15:08:23.636Z,34.00
2023-06-09T15:13:25.760Z,33.00
2023-06-09T15:18:27.948Z,33.30
2023-06-09T15:23:30.089Z,33.20
2023-06-09T15:28:32.448Z,33.10
2023-06-09T15:33:34.520Z,33.30
2023-06-09T15:38:36.603Z,32.90
2023-06-09T15:43:39.133Z,32.50
2023-06-09T15:48:41.424Z,32.00
2023-06-09T15:53:43.507Z,33.10
2023-06-09T15:58:45.619Z,32.40
2023-06-09T16:03:47.697Z,31.80
2023-06-09T16:08:49.789Z,33.00
2023-06-09T16:13:51.935Z,32.10
2023-06-09T16:18:54.065Z,31.20
2023-06-09T16:23:56.404Z,31.70
2023-06-09T16:28:58.692Z,31.70
2023-06-09T16:34:00.741Z,31.60
2023-06-09T16:39:02.844Z,32.10
2023-06-09T16:44:05.291Z,30.20
2023-06-09T16:49:07.397Z,31.90
2023-06-09T16:54:09.584Z,32.00
2023-06-09T16:59:11.868Z,32.20
2023-06-09T17:04:14.147Z,31.80
2023-06-09T17:09:16.461Z,32.10
2023-06-09T17:14:20.590Z,30.90
2023-06-09T17:19:23.579Z,30.90
2023-06-09T17:24:25.650Z,30.40
2023-06-09T17:29:27.850Z,31.30
2023-06-09T17:34:29.972Z,31.40
2023-06-09T17:39:32.162Z,30.50
2023-06-09T17:44:35.450Z,29.30
2023-06-09T17:49:37.748Z,27.90
2023-06-09T17:54:39.883Z,27.30
2023-06-09T17:59:42.240Z,26.30
2023-06-09T18:04:44.346Z,26.40
2023-06-09T18:09:46.660Z,26.50
2023-06-09T18:14:48.793Z,27.00
2023-06-09T18:19:52.732Z,27.90
2023-06-09T18:24:54.892Z,29.00
2023-06-09T18:30:00.172Z,29.80
2023-06-09T18:35:02.369Z,31.30
2023-06-09T18:40:04.840Z,32.00
2023-06-09T18:45:07.607Z,33.00
2023-06-09T18:50:10.831Z,33.50
2023-06-09T18:55:13.068Z,34.20
2023-06-09T19:00:15.567Z,35.30
2023-06-09T19:05:17.798Z,36.20
2023-06-09T19:10:20.020Z,36.80
2023-06-09T19:15:22.818Z,37.40
2023-06-09T19:20:28.176Z,39.00
2023-06-09T19:25:30.616Z,39.50
2023-06-09T19:30:34.496Z,40.80
2023-06-09T19:35:36.628Z,40.80
2023-06-09T19:40:39.083Z,41.40
2023-06-09T19:45:41.239Z,42.40
2023-06-09T19:50:44.630Z,43.00
2023-06-09T19:55:47.159Z,43.90
2023-06-09T20:00:49.559Z,44.60
2023-06-09T20:05:51.737Z,45.40
2023-06-09T20:10:53.824Z,46.40
2023-06-09T20:15:56.070Z,47.90
2023-06-09T20:20:58.203Z,48.90
2023-06-09T20:26:00.418Z,49.60
2023-06-09T20:31:06.478Z,50.20
2023-06-09T20:36:09.420Z,50.50
2023-06-09T20:41:11.735Z,50.50
2023-06-09T20:46:13.957Z,50.90
2023-06-09T20:51:16.237Z,51.40
2023-06-09T20:56:18.700Z,52.00
2023-06-09T21:01:21.492Z,53.10
2023-06-09T21:06:23.984Z,53.80
2023-06-09T21:11:27.345Z,55.00
2023-06-09T21:16:29.598Z,55.80
2023-06-09T21:21:32.557Z,57.10
2023-06-09T21:26:34.833Z,58.90
2023-06-09T21:31:37.082Z,61.80
2023-06-09T21:36:39.577Z,65.60
2023-06-09T21:41:41.689Z,72.20
2023-06-09T21:46:43.783Z,79.30
2023-06-09T21:51:45.909Z,87.70
2023-06-09T21:56:48.083Z,93.40
2023-06-09T22:01:50.708Z,98.20
2023-06-09T22:06:53.269Z,99.90
2023-06-09T22:11:55.383Z,99.90
2023-06-09T22:16:59.864Z,99.90
2023-06-09T22:22:02.302Z,99.90
2023-06-09T22:27:05.458Z,99.90
2023-06-09T22:32:08.085Z,99.90
2023-06-09T22:37:12.292Z,99.90
2023-06-09T22:42:14.493Z,99.90
2023-06-09T22:47:17.021Z,99.90
2023-06-09T22:52:21.306Z,99.90
2023-06-09T22:57:23.383Z,99.90
2023-06-09T23:02:25.712Z,99.90
2023-06-09T23:07:28.401Z,99.90
2023-06-09T23:12:30.828Z,99.90
2023-06-09T23:17:37.438Z,99.90
2023-06-09T23:22:41.310Z,99.90
2023-06-09T23:27:43.500Z,99.90
2023-06-09T23:32:46.570Z,99.90
2023-06-09T23:37:53.832Z,99.90
2023-06-09T23:42:56.278Z,99.90
2023-06-09T23:47:58.915Z,99.90
2023-06-09T23:53:01.622Z,99.90
2023-06-09T23:58:03.714Z,99.90
